sensor_id;sensor_type;location;lat;lon;timestamp;temperature;humidity
5508;DHT22;2776;51.046;6.772;2022-08-19T00:00:51;19.40;99.90
5508;DHT22;2776;51.046;6.772;2022-08-19T00:03:17;19.30;99.90
5508;DHT22;2776;51.046;6.772;2022-08-19T00:05:44;19.20;99.90
5508;DHT22;2776;51.046;6.772;2022-08-19T00:08:11;19.10;99.90
5508;DHT22;2776;51.046;6.772;2022-08-19T00:10:38;19.10;99.90
5508;DHT22;2776;51.046;6.772;2022-08-19T00:13:04;19.10;99.90
5508;DHT22;2776;51.046;6.772;2022-08-19T00:15:33;19.10;99.90
5508;DHT22;2776;51.046;6.772;2022-08-19T00:18:00;19.10;99.90
5508;DHT22;2776;51.046;6.772;2022-08-19T00:20:27;19.10;99.90
5508;DHT22;2776;51.046;6.772;2022-08-19T00:22:53;19.00;99.90
5508;DHT22;2776;51.046;6.772;2022-08-19T00:25:21;18.90;99.90
5508;DHT22;2776;51.046;6.772;2022-08-19T00:27:47;18.90;99.90
5508;DHT22;2776;51.046;6.772;2022-08-19T00:30:15;18.90;99.90
5508;DHT22;2776;51.046;6.772;2022-08-19T00:32:43;18.90;99.90
5508;DHT22;2776;51.046;6.772;2022-08-19T00:35:10;18.90;99.90
5508;DHT22;2776;51.046;6.772;2022-08-19T00:37:37;18.90;99.90
5508;DHT22;2776;51.046;6.772;2022-08-19T00:40:10;18.80;99.90
5508;DHT22;2776;51.046;6.772;2022-08-19T00:42:37;18.70;99.90
5508;DHT22;2776;51.046;6.772;2022-08-19T00:45:09;18.70;99.90
5508;DHT22;2776;51.046;6.772;2022-08-19T00:47:36;18.60;99.90
5508;DHT22;2776;51.046;6.772;2022-08-19T00:50:06;18.50;99.90
5508;DHT22;2776;51.046;6.772;2022-08-19T00:52:38;18.50;99.90
5508;DHT22;2776;51.046;6.772;2022-08-19T00:55:07;18.50;99.90
5508;DHT22;2776;51.046;6.772;2022-08-19T00:57:38;18.50;99.90
5508;DHT22;2776;51.046;6.772;2022-08-19T01:00:09;18.50;99.90
5508;DHT22;2776;51.046;6.772;2022-08-19T01:02:37;18.50;99.90
5508;DHT22;2776;51.046;6.772;2022-08-19T01:05:09;18.50;99.90
5508;DHT22;2776;51.046;6.772;2022-08-19T01:07:38;18.50;99.90
5508;DHT22;2776;51.046;6.772;2022-08-19T01:10:08;18.40;99.90
5508;DHT22;2776;51.046;6.772;2022-08-19T01:12:36;18.50;99.90
5508;DHT22;2776;51.046;6.772;2022-08-19T01:15:04;18.50;99.90
5508;DHT22;2776;51.046;6.772;2022-08-19T01:17:31;18.60;99.90
5508;DHT22;2776;51.046;6.772;2022-08-19T01:19:59;18.50;99.90
5508;DHT22;2776;51.046;6.772;2022-08-19T01:22:30;18.50;99.90
5508;DHT22;2776;51.046;6.772;2022-08-19T01:24:59;18.50;99.90
5508;DHT22;2776;51.046;6.772;2022-08-19T01:27:26;18.50;99.90
5508;DHT22;2776;51.046;6.772;2022-08-19T01:29:53;18.50;99.90
5508;DHT22;2776;51.046;6.772;2022-08-19T01:32:19;18.60;99.90
5508;DHT22;2776;51.046;6.772;2022-08-19T01:34:46;18.60;99.90
5508;DHT22;2776;51.046;6.772;2022-08-19T01:37:14;18.50;99.90
5508;DHT22;2776;51.046;6.772;2022-08-19T01:39:43;18.50;99.90
5508;DHT22;2776;51.046;6.772;2022-08-19T01:42:10;18.50;99.90
5508;DHT22;2776;51.046;6.772;2022-08-19T01:44:38;18.50;99.90
5508;DHT22;2776;51.046;6.772;2022-08-19T01:47:05;18.50;99.90
5508;DHT22;2776;51.046;6.772;2022-08-19T01:49:32;18.40;99.90
5508;DHT22;2776;51.046;6.772;2022-08-19T01:52:00;18.40;99.90
5508;DHT22;2776;51.046;6.772;2022-08-19T01:54:27;18.40;99.90
5508;DHT22;2776;51.046;6.772;2022-08-19T01:57:00;18.40;99.90
5508;DHT22;2776;51.046;6.772;2022-08-19T01:59:28;18.40;99.90
5508;DHT22;2776;51.046;6.772;2022-08-19T02:01:55;18.40;99.90
5508;DHT22;2776;51.046;6.772;2022-08-19T02:04:22;18.40;99.90
5508;DHT22;2776;51.046;6.772;2022-08-19T02:06:50;18.40;99.90
5508;DHT22;2776;51.046;6.772;2022-08-19T02:09:17;18.30;99.90
5508;DHT22;2776;51.046;6.772;2022-08-19T02:11:44;18.30;99.90
5508;DHT22;2776;51.046;6.772;2022-08-19T02:14:12;18.30;99.90
5508;DHT22;2776;51.046;6.772;2022-08-19T02:16:39;18.20;99.90
5508;DHT22;2776;51.046;6.772;2022-08-19T02:19:06;18.10;99.90
5508;DHT22;2776;51.046;6.772;2022-08-19T02:21:33;18.20;99.90
5508;DHT22;2776;51.046;6.772;2022-08-19T02:24:00;18.10;99.90
5508;DHT22;2776;51.046;6.772;2022-08-19T02:26:27;18.20;99.90
5508;DHT22;2776;51.046;6.772;2022-08-19T02:28:54;18.20;99.90
5508;DHT22;2776;51.046;6.772;2022-08-19T02:31:25;18.20;99.90
5508;DHT22;2776;51.046;6.772;2022-08-19T02:33:53;18.20;99.90
5508;DHT22;2776;51.046;6.772;2022-08-19T02:36:21;18.10;99.90
5508;DHT22;2776;51.046;6.772;2022-08-19T02:38:48;18.10;99.90
5508;DHT22;2776;51.046;6.772;2022-08-19T02:41:16;18.00;99.90
5508;DHT22;2776;51.046;6.772;2022-08-19T02:43:44;18.10;99.90
5508;DHT22;2776;51.046;6.772;2022-08-19T02:46:16;18.10;99.90
5508;DHT22;2776;51.046;6.772;2022-08-19T02:48:48;18.10;99.90
5508;DHT22;2776;51.046;6.772;2022-08-19T02:51:20;18.00;99.90
5508;DHT22;2776;51.046;6.772;2022-08-19T02:53:48;18.10;99.90
5508;DHT22;2776;51.046;6.772;2022-08-19T02:56:15;18.00;99.90
5508;DHT22;2776;51.046;6.772;2022-08-19T02:58:42;18.00;99.90
5508;DHT22;2776;51.046;6.772;2022-08-19T03:01:10;17.90;99.90
5508;DHT22;2776;51.046;6.772;2022-08-19T03:03:38;17.90;99.90
5508;DHT22;2776;51.046;6.772;2022-08-19T03:06:11;17.90;99.90
5508;DHT22;2776;51.046;6.772;2022-08-19T03:08:39;17.80;99.90
5508;DHT22;2776;51.046;6.772;2022-08-19T03:11:12;17.80;99.90
5508;DHT22;2776;51.046;6.772;2022-08-19T03:13:39;17.80;99.90
5508;DHT22;2776;51.046;6.772;2022-08-19T03:16:09;17.80;99.90
5508;DHT22;2776;51.046;6.772;2022-08-19T03:18:36;17.60;99.90
5508;DHT22;2776;51.046;6.772;2022-08-19T03:21:04;17.60;99.90
5508;DHT22;2776;51.046;6.772;2022-08-19T03:23:32;17.60;99.90
5508;DHT22;2776;51.046;6.772;2022-08-19T03:26:02;17.50;99.90
5508;DHT22;2776;51.046;6.772;2022-08-19T03:28:30;17.50;99.90
5508;DHT22;2776;51.046;6.772;2022-08-19T03:30:59;17.50;99.90
5508;DHT22;2776;51.046;6.772;2022-08-19T03:33:27;17.40;99.90
5508;DHT22;2776;51.046;6.772;2022-08-19T03:36:07;17.40;99.90
5508;DHT22;2776;51.046;6.772;2022-08-19T03:38:37;17.50;99.90
5508;DHT22;2776;51.046;6.772;2022-08-19T03:41:05;17.40;99.90
5508;DHT22;2776;51.046;6.772;2022-08-19T03:43:34;17.40;99.90
5508;DHT22;2776;51.046;6.772;2022-08-19T03:46:03;17.40;99.90
5508;DHT22;2776;51.046;6.772;2022-08-19T03:48:31;17.30;99.90
5508;DHT22;2776;51.046;6.772;2022-08-19T03:50:58;17.40;99.90
5508;DHT22;2776;51.046;6.772;2022-08-19T03:53:26;17.40;99.90
5508;DHT22;2776;51.046;6.772;2022-08-19T03:55:55;17.30;99.90
5508;DHT22;2776;51.046;6.772;2022-08-19T03:58:23;17.40;99.90
5508;DHT22;2776;51.046;6.772;2022-08-19T04:00:50;17.40;99.90
5508;DHT22;2776;51.046;6.772;2022-08-19T04:03:17;17.40;99.90
5508;DHT22;2776;51.046;6.772;2022-08-19T04:05:45;17.40;99.90
5508;DHT22;2776;51.046;6.772;2022-08-19T04:08:13;17.40;99.90
5508;DHT22;2776;51.046;6.772;2022-08-19T04:10:41;17.40;99.90
5508;DHT22;2776;51.046;6.772;2022-08-19T04:13:09;17.40;99.90
5508;DHT22;2776;51.046;6.772;2022-08-19T04:15:39;17.40;99.90
5508;DHT22;2776;51.046;6.772;2022-08-19T04:18:07;17.30;99.90
5508;DHT22;2776;51.046;6.772;2022-08-19T04:20:39;17.30;99.90
5508;DHT22;2776;51.046;6.772;2022-08-19T04:23:06;17.30;99.90
5508;DHT22;2776;51.046;6.772;2022-08-19T04:25:36;17.30;99.90
5508;DHT22;2776;51.046;6.772;2022-08-19T04:28:03;17.30;99.90
5508;DHT22;2776;51.046;6.772;2022-08-19T04:30:37;17.20;99.90
5508;DHT22;2776;51.046;6.772;2022-08-19T04:33:04;17.30;99.90
5508;DHT22;2776;51.046;6.772;2022-08-19T04:35:35;17.20;99.90
5508;DHT22;2776;51.046;6.772;2022-08-19T04:38:02;17.20;99.90
5508;DHT22;2776;51.046;6.772;2022-08-19T04:40:29;17.20;99.90
5508;DHT22;2776;51.046;6.772;2022-08-19T04:43:13;17.10;99.90
5508;DHT22;2776;51.046;6.772;2022-08-19T04:45:42;17.10;99.90
5508;DHT22;2776;51.046;6.772;2022-08-19T04:48:09;17.10;99.90
5508;DHT22;2776;51.046;6.772;2022-08-19T04:50:38;17.10;99.90
5508;DHT22;2776;51.046;6.772;2022-08-19T04:53:06;17.20;99.90
5508;DHT22;2776;51.046;6.772;2022-08-19T04:55:33;17.20;99.90
5508;DHT22;2776;51.046;6.772;2022-08-19T04:58:01;17.20;99.90
5508;DHT22;2776;51.046;6.772;2022-08-19T05:00:28;17.30;99.90
5508;DHT22;2776;51.046;6.772;2022-08-19T05:02:56;17.30;99.90
5508;DHT22;2776;51.046;6.772;2022-08-19T05:05:23;17.40;99.90
5508;DHT22;2776;51.046;6.772;2022-08-19T05:07:49;17.40;99.90
5508;DHT22;2776;51.046;6.772;2022-08-19T05:10:16;17.50;99.90
5508;DHT22;2776;51.046;6.772;2022-08-19T05:12:43;17.70;99.90
5508;DHT22;2776;51.046;6.772;2022-08-19T05:15:10;17.80;99.90
5508;DHT22;2776;51.046;6.772;2022-08-19T05:17:37;17.80;99.90
5508;DHT22;2776;51.046;6.772;2022-08-19T05:20:25;17.90;99.90
5508;DHT22;2776;51.046;6.772;2022-08-19T05:23:10;18.00;99.90
5508;DHT22;2776;51.046;6.772;2022-08-19T05:25:40;18.10;99.90
5508;DHT22;2776;51.046;6.772;2022-08-19T05:28:07;18.20;99.90
5508;DHT22;2776;51.046;6.772;2022-08-19T05:30:34;18.30;99.90
5508;DHT22;2776;51.046;6.772;2022-08-19T05:33:00;18.40;99.90
5508;DHT22;2776;51.046;6.772;2022-08-19T05:35:28;18.60;99.90
5508;DHT22;2776;51.046;6.772;2022-08-19T05:37:56;18.70;99.90
5508;DHT22;2776;51.046;6.772;2022-08-19T05:40:23;18.70;99.90
5508;DHT22;2776;51.046;6.772;2022-08-19T05:42:49;18.90;99.90
5508;DHT22;2776;51.046;6.772;2022-08-19T05:45:17;19.10;99.90
5508;DHT22;2776;51.046;6.772;2022-08-19T05:47:44;19.20;99.90
5508;DHT22;2776;51.046;6.772;2022-08-19T05:50:11;19.40;99.90
5508;DHT22;2776;51.046;6.772;2022-08-19T05:52:39;19.60;99.90
5508;DHT22;2776;51.046;6.772;2022-08-19T05:55:06;19.70;99.90
5508;DHT22;2776;51.046;6.772;2022-08-19T05:57:33;19.90;99.90
5508;DHT22;2776;51.046;6.772;2022-08-19T06:00:00;20.10;99.90
5508;DHT22;2776;51.046;6.772;2022-08-19T06:02:30;20.30;99.90
5508;DHT22;2776;51.046;6.772;2022-08-19T06:04:57;20.50;99.90
5508;DHT22;2776;51.046;6.772;2022-08-19T06:07:24;20.60;99.90
5508;DHT22;2776;51.046;6.772;2022-08-19T06:09:52;20.70;99.90
5508;DHT22;2776;51.046;6.772;2022-08-19T06:12:19;20.80;99.90
5508;DHT22;2776;51.046;6.772;2022-08-19T06:14:46;20.90;99.90
5508;DHT22;2776;51.046;6.772;2022-08-19T06:17:13;21.00;99.90
5508;DHT22;2776;51.046;6.772;2022-08-19T06:19:39;21.20;99.90
5508;DHT22;2776;51.046;6.772;2022-08-19T06:22:08;21.20;99.90
5508;DHT22;2776;51.046;6.772;2022-08-19T06:24:37;21.20;99.90
5508;DHT22;2776;51.046;6.772;2022-08-19T06:27:05;21.30;99.90
5508;DHT22;2776;51.046;6.772;2022-08-19T06:29:32;21.30;99.90
5508;DHT22;2776;51.046;6.772;2022-08-19T06:32:02;21.40;99.90
5508;DHT22;2776;51.046;6.772;2022-08-19T06:34:31;21.50;99.90
5508;DHT22;2776;51.046;6.772;2022-08-19T06:37:00;21.40;99.90
5508;DHT22;2776;51.046;6.772;2022-08-19T06:39:29;21.40;99.90
5508;DHT22;2776;51.046;6.772;2022-08-19T06:41:59;21.30;99.90
5508;DHT22;2776;51.046;6.772;2022-08-19T06:44:28;21.30;99.90
5508;DHT22;2776;51.046;6.772;2022-08-19T06:47:01;21.30;99.90
5508;DHT22;2776;51.046;6.772;2022-08-19T06:49:29;21.30;99.90
5508;DHT22;2776;51.046;6.772;2022-08-19T06:51:56;21.20;99.90
5508;DHT22;2776;51.046;6.772;2022-08-19T06:54:24;21.20;99.90
5508;DHT22;2776;51.046;6.772;2022-08-19T06:56:51;21.20;99.90
5508;DHT22;2776;51.046;6.772;2022-08-19T06:59:21;21.10;99.90
5508;DHT22;2776;51.046;6.772;2022-08-19T07:01:51;21.00;99.90
5508;DHT22;2776;51.046;6.772;2022-08-19T07:04:21;21.10;99.90
5508;DHT22;2776;51.046;6.772;2022-08-19T07:06:48;21.10;99.90
5508;DHT22;2776;51.046;6.772;2022-08-19T07:09:17;21.10;99.90
5508;DHT22;2776;51.046;6.772;2022-08-19T07:11:45;21.00;99.90
5508;DHT22;2776;51.046;6.772;2022-08-19T07:14:12;21.00;99.90
5508;DHT22;2776;51.046;6.772;2022-08-19T07:16:39;21.00;99.90
5508;DHT22;2776;51.046;6.772;2022-08-19T07:19:07;21.00;99.90
5508;DHT22;2776;51.046;6.772;2022-08-19T07:21:35;21.00;99.90
5508;DHT22;2776;51.046;6.772;2022-08-19T07:24:03;21.10;99.90
5508;DHT22;2776;51.046;6.772;2022-08-19T07:26:33;21.10;99.90
5508;DHT22;2776;51.046;6.772;2022-08-19T07:29:00;21.20;99.90
5508;DHT22;2776;51.046;6.772;2022-08-19T07:31:28;21.20;99.90
5508;DHT22;2776;51.046;6.772;2022-08-19T07:33:55;21.20;99.90
5508;DHT22;2776;51.046;6.772;2022-08-19T07:36:27;21.10;99.90
5508;DHT22;2776;51.046;6.772;2022-08-19T07:38:59;21.20;99.90
5508;DHT22;2776;51.046;6.772;2022-08-19T07:41:27;21.30;99.90
5508;DHT22;2776;51.046;6.772;2022-08-19T07:43:57;21.30;99.90
5508;DHT22;2776;51.046;6.772;2022-08-19T07:46:23;21.30;99.90
5508;DHT22;2776;51.046;6.772;2022-08-19T07:48:51;21.40;99.90
5508;DHT22;2776;51.046;6.772;2022-08-19T07:51:20;21.50;99.90
5508;DHT22;2776;51.046;6.772;2022-08-19T07:53:49;21.60;99.90
5508;DHT22;2776;51.046;6.772;2022-08-19T07:56:17;21.60;99.90
5508;DHT22;2776;51.046;6.772;2022-08-19T07:58:46;21.70;99.90
5508;DHT22;2776;51.046;6.772;2022-08-19T08:01:15;21.80;99.90
5508;DHT22;2776;51.046;6.772;2022-08-19T08:03:43;21.90;99.90
5508;DHT22;2776;51.046;6.772;2022-08-19T08:06:27;22.10;99.90
5508;DHT22;2776;51.046;6.772;2022-08-19T08:09:15;22.30;99.90
5508;DHT22;2776;51.046;6.772;2022-08-19T08:11:49;22.60;99.90
5508;DHT22;2776;51.046;6.772;2022-08-19T08:14:18;22.90;99.90
5508;DHT22;2776;51.046;6.772;2022-08-19T08:16:46;23.20;99.90
5508;DHT22;2776;51.046;6.772;2022-08-19T08:19:14;23.50;99.90
5508;DHT22;2776;51.046;6.772;2022-08-19T08:21:41;23.60;99.90
5508;DHT22;2776;51.046;6.772;2022-08-19T08:24:09;23.80;99.90
5508;DHT22;2776;51.046;6.772;2022-08-19T08:26:38;24.00;99.90
5508;DHT22;2776;51.046;6.772;2022-08-19T08:29:05;24.10;99.90
5508;DHT22;2776;51.046;6.772;2022-08-19T08:31:33;24.20;99.90
5508;DHT22;2776;51.046;6.772;2022-08-19T08:34:00;24.30;99.90
5508;DHT22;2776;51.046;6.772;2022-08-19T08:36:27;24.40;99.90
5508;DHT22;2776;51.046;6.772;2022-08-19T08:38:53;24.30;99.90
5508;DHT22;2776;51.046;6.772;2022-08-19T08:41:28;24.20;99.90
5508;DHT22;2776;51.046;6.772;2022-08-19T08:43:58;24.30;99.90
5508;DHT22;2776;51.046;6.772;2022-08-19T08:46:29;24.40;99.90
5508;DHT22;2776;51.046;6.772;2022-08-19T08:49:12;24.20;99.90
5508;DHT22;2776;51.046;6.772;2022-08-19T08:51:47;24.20;99.90
5508;DHT22;2776;51.046;6.772;2022-08-19T08:54:19;24.10;99.90
5508;DHT22;2776;51.046;6.772;2022-08-19T08:56:48;23.90;99.90
5508;DHT22;2776;51.046;6.772;2022-08-19T08:59:21;24.00;99.90
5508;DHT22;2776;51.046;6.772;2022-08-19T09:01:48;24.10;99.90
5508;DHT22;2776;51.046;6.772;2022-08-19T09:04:15;24.10;99.90
5508;DHT22;2776;51.046;6.772;2022-08-19T09:06:50;24.20;99.90
5508;DHT22;2776;51.046;6.772;2022-08-19T09:09:23;24.30;99.90
5508;DHT22;2776;51.046;6.772;2022-08-19T09:12:04;24.20;99.90
5508;DHT22;2776;51.046;6.772;2022-08-19T09:14:41;24.30;99.90
5508;DHT22;2776;51.046;6.772;2022-08-19T09:17:11;24.40;99.90
5508;DHT22;2776;51.046;6.772;2022-08-19T09:19:50;24.50;99.90
5508;DHT22;2776;51.046;6.772;2022-08-19T09:22:17;24.60;99.90
5508;DHT22;2776;51.046;6.772;2022-08-19T09:24:47;24.70;99.90
5508;DHT22;2776;51.046;6.772;2022-08-19T09:27:14;24.90;99.90
5508;DHT22;2776;51.046;6.772;2022-08-19T09:29:43;24.90;99.90
5508;DHT22;2776;51.046;6.772;2022-08-19T09:32:10;25.00;99.90
5508;DHT22;2776;51.046;6.772;2022-08-19T09:34:36;25.20;99.90
5508;DHT22;2776;51.046;6.772;2022-08-19T09:37:03;25.30;99.90
5508;DHT22;2776;51.046;6.772;2022-08-19T09:39:30;25.40;99.90
5508;DHT22;2776;51.046;6.772;2022-08-19T09:41:57;25.60;99.90
5508;DHT22;2776;51.046;6.772;2022-08-19T09:44:24;25.70;99.90
5508;DHT22;2776;51.046;6.772;2022-08-19T09:46:52;25.80;99.90
5508;DHT22;2776;51.046;6.772;2022-08-19T09:49:19;26.00;99.90
5508;DHT22;2776;51.046;6.772;2022-08-19T09:51:50;26.20;99.90
5508;DHT22;2776;51.046;6.772;2022-08-19T09:54:17;26.40;99.90
5508;DHT22;2776;51.046;6.772;2022-08-19T09:56:44;26.50;99.90
5508;DHT22;2776;51.046;6.772;2022-08-19T09:59:11;26.60;99.90
5508;DHT22;2776;51.046;6.772;2022-08-19T10:01:38;26.70;99.90
5508;DHT22;2776;51.046;6.772;2022-08-19T10:04:06;26.80;99.90
5508;DHT22;2776;51.046;6.772;2022-08-19T10:06:36;26.80;99.90
5508;DHT22;2776;51.046;6.772;2022-08-19T10:09:04;26.60;99.90
5508;DHT22;2776;51.046;6.772;2022-08-19T10:11:32;26.60;99.90
5508;DHT22;2776;51.046;6.772;2022-08-19T10:14:00;26.50;99.90
5508;DHT22;2776;51.046;6.772;2022-08-19T10:16:27;26.50;99.90
5508;DHT22;2776;51.046;6.772;2022-08-19T10:18:54;26.60;99.90
5508;DHT22;2776;51.046;6.772;2022-08-19T10:21:26;26.70;99.90
5508;DHT22;2776;51.046;6.772;2022-08-19T10:23:57;26.70;99.90
5508;DHT22;2776;51.046;6.772;2022-08-19T10:26:26;26.70;99.90
5508;DHT22;2776;51.046;6.772;2022-08-19T10:28:54;26.80;99.90
5508;DHT22;2776;51.046;6.772;2022-08-19T10:31:23;26.80;99.90
5508;DHT22;2776;51.046;6.772;2022-08-19T10:33:51;26.90;99.90
5508;DHT22;2776;51.046;6.772;2022-08-19T10:36:24;26.90;99.90
5508;DHT22;2776;51.046;6.772;2022-08-19T10:38:53;26.90;99.90
5508;DHT22;2776;51.046;6.772;2022-08-19T10:41:23;27.00;99.90
5508;DHT22;2776;51.046;6.772;2022-08-19T10:43:51;27.00;99.90
5508;DHT22;2776;51.046;6.772;2022-08-19T10:46:20;27.00;99.90
5508;DHT22;2776;51.046;6.772;2022-08-19T10:48:48;27.00;99.90
5508;DHT22;2776;51.046;6.772;2022-08-19T10:51:15;27.00;99.90
5508;DHT22;2776;51.046;6.772;2022-08-19T10:54:01;27.00;99.90
5508;DHT22;2776;51.046;6.772;2022-08-19T10:56:29;27.00;99.90
5508;DHT22;2776;51.046;6.772;2022-08-19T10:59:15;27.00;99.90
5508;DHT22;2776;51.046;6.772;2022-08-19T11:01:44;27.00;99.90
5508;DHT22;2776;51.046;6.772;2022-08-19T11:04:11;27.00;99.90
5508;DHT22;2776;51.046;6.772;2022-08-19T11:06:39;27.00;99.90
5508;DHT22;2776;51.046;6.772;2022-08-19T11:09:08;26.90;99.90
5508;DHT22;2776;51.046;6.772;2022-08-19T11:11:36;27.00;99.90
5508;DHT22;2776;51.046;6.772;2022-08-19T11:14:06;27.00;99.90
5508;DHT22;2776;51.046;6.772;2022-08-19T11:16:33;27.10;99.90
5508;DHT22;2776;51.046;6.772;2022-08-19T11:19:00;27.20;99.90
5508;DHT22;2776;51.046;6.772;2022-08-19T11:21:30;27.10;99.90
5508;DHT22;2776;51.046;6.772;2022-08-19T11:24:01;27.10;99.90
5508;DHT22;2776;51.046;6.772;2022-08-19T11:26:30;27.00;99.90
5508;DHT22;2776;51.046;6.772;2022-08-19T11:28:57;26.90;99.90
5508;DHT22;2776;51.046;6.772;2022-08-19T11:31:26;26.70;99.90
5508;DHT22;2776;51.046;6.772;2022-08-19T11:33:56;26.80;99.90
5508;DHT22;2776;51.046;6.772;2022-08-19T11:36:22;26.70;99.90
5508;DHT22;2776;51.046;6.772;2022-08-19T11:38:50;26.60;99.90
5508;DHT22;2776;51.046;6.772;2022-08-19T11:41:19;26.60;99.90
5508;DHT22;2776;51.046;6.772;2022-08-19T11:43:47;26.50;99.90
5508;DHT22;2776;51.046;6.772;2022-08-19T11:46:15;26.60;99.90
5508;DHT22;2776;51.046;6.772;2022-08-19T11:48:43;26.70;99.90
5508;DHT22;2776;51.046;6.772;2022-08-19T11:51:12;26.70;99.90
5508;DHT22;2776;51.046;6.772;2022-08-19T11:53:39;26.70;99.90
5508;DHT22;2776;51.046;6.772;2022-08-19T11:56:08;26.70;99.90
5508;DHT22;2776;51.046;6.772;2022-08-19T11:58:35;26.80;99.90
5508;DHT22;2776;51.046;6.772;2022-08-19T12:01:07;26.70;99.90
5508;DHT22;2776;51.046;6.772;2022-08-19T12:03:34;26.80;99.90
5508;DHT22;2776;51.046;6.772;2022-08-19T12:06:04;26.70;99.90
5508;DHT22;2776;51.046;6.772;2022-08-19T12:08:31;26.80;99.90
5508;DHT22;2776;51.046;6.772;2022-08-19T12:10:58;27.00;99.90
5508;DHT22;2776;51.046;6.772;2022-08-19T12:13:26;27.10;99.90
5508;DHT22;2776;51.046;6.772;2022-08-19T12:15:53;27.20;99.40
5508;DHT22;2776;51.046;6.772;2022-08-19T12:18:22;27.50;98.80
5508;DHT22;2776;51.046;6.772;2022-08-19T12:20:51;27.70;98.70
5508;DHT22;2776;51.046;6.772;2022-08-19T12:23:20;27.90;96.80
5508;DHT22;2776;51.046;6.772;2022-08-19T12:25:48;27.90;94.60
5508;DHT22;2776;51.046;6.772;2022-08-19T12:28:17;27.70;93.50
5508;DHT22;2776;51.046;6.772;2022-08-19T12:30:44;27.40;92.40
5508;DHT22;2776;51.046;6.772;2022-08-19T12:33:11;27.30;94.80
5508;DHT22;2776;51.046;6.772;2022-08-19T12:35:41;27.20;95.50
5508;DHT22;2776;51.046;6.772;2022-08-19T12:38:09;27.20;94.10
5508;DHT22;2776;51.046;6.772;2022-08-19T12:40:36;27.30;93.00
5508;DHT22;2776;51.046;6.772;2022-08-19T12:43:04;27.40;91.90
5508;DHT22;2776;51.046;6.772;2022-08-19T12:45:31;27.50;94.40
5508;DHT22;2776;51.046;6.772;2022-08-19T12:47:57;27.80;95.00
5508;DHT22;2776;51.046;6.772;2022-08-19T12:50:24;27.90;94.50
5508;DHT22;2776;51.046;6.772;2022-08-19T12:52:52;28.00;93.20
5508;DHT22;2776;51.046;6.772;2022-08-19T12:55:19;28.10;92.70
5508;DHT22;2776;51.046;6.772;2022-08-19T12:57:46;28.10;91.00
5508;DHT22;2776;51.046;6.772;2022-08-19T13:03:22;28.10;88.10
5508;DHT22;2776;51.046;6.772;2022-08-19T13:05:54;28.10;87.00
5508;DHT22;2776;51.046;6.772;2022-08-19T13:08:22;28.20;89.30
5508;DHT22;2776;51.046;6.772;2022-08-19T13:10:49;28.20;87.50
5508;DHT22;2776;51.046;6.772;2022-08-19T13:13:16;28.20;85.00
5508;DHT22;2776;51.046;6.772;2022-08-19T13:15:43;28.10;83.30
5508;DHT22;2776;51.046;6.772;2022-08-19T13:18:12;28.10;82.40
5508;DHT22;2776;51.046;6.772;2022-08-19T13:20:40;27.90;78.30
5508;DHT22;2776;51.046;6.772;2022-08-19T13:23:07;27.90;77.00
5508;DHT22;2776;51.046;6.772;2022-08-19T13:25:35;27.90;78.30
5508;DHT22;2776;51.046;6.772;2022-08-19T13:28:02;28.00;76.40
5508;DHT22;2776;51.046;6.772;2022-08-19T13:30:32;28.00;74.40
5508;DHT22;2776;51.046;6.772;2022-08-19T13:33:16;28.00;76.30
5508;DHT22;2776;51.046;6.772;2022-08-19T13:35:46;27.90;80.20
5508;DHT22;2776;51.046;6.772;2022-08-19T13:38:14;28.00;83.70
5508;DHT22;2776;51.046;6.772;2022-08-19T13:40:43;27.90;79.80
5508;DHT22;2776;51.046;6.772;2022-08-19T13:43:11;27.90;81.60
5508;DHT22;2776;51.046;6.772;2022-08-19T13:45:39;27.80;82.30
5508;DHT22;2776;51.046;6.772;2022-08-19T13:48:07;27.90;78.30
5508;DHT22;2776;51.046;6.772;2022-08-19T13:50:38;27.90;74.70
5508;DHT22;2776;51.046;6.772;2022-08-19T13:53:07;27.90;73.70
5508;DHT22;2776;51.046;6.772;2022-08-19T13:55:34;27.90;75.90
5508;DHT22;2776;51.046;6.772;2022-08-19T13:58:03;27.80;66.70
5508;DHT22;2776;51.046;6.772;2022-08-19T14:00:32;27.80;65.30
5508;DHT22;2776;51.046;6.772;2022-08-19T14:02:59;27.70;69.80
5508;DHT22;2776;51.046;6.772;2022-08-19T14:05:27;27.70;69.80
5508;DHT22;2776;51.046;6.772;2022-08-19T14:07:55;27.80;71.50
5508;DHT22;2776;51.046;6.772;2022-08-19T14:10:23;27.80;73.80
5508;DHT22;2776;51.046;6.772;2022-08-19T14:12:53;27.90;74.70
5508;DHT22;2776;51.046;6.772;2022-08-19T14:15:22;27.90;72.50
5508;DHT22;2776;51.046;6.772;2022-08-19T14:17:49;28.00;69.00
5508;DHT22;2776;51.046;6.772;2022-08-19T14:20:17;28.10;68.60
5508;DHT22;2776;51.046;6.772;2022-08-19T14:22:44;28.10;68.20
5508;DHT22;2776;51.046;6.772;2022-08-19T14:25:15;28.10;64.80
5508;DHT22;2776;51.046;6.772;2022-08-19T14:27:42;28.00;62.40
5508;DHT22;2776;51.046;6.772;2022-08-19T14:30:11;28.00;62.80
5508;DHT22;2776;51.046;6.772;2022-08-19T14:32:39;28.00;59.20
5508;DHT22;2776;51.046;6.772;2022-08-19T14:35:09;27.90;60.00
5508;DHT22;2776;51.046;6.772;2022-08-19T14:37:38;27.90;61.00
5508;DHT22;2776;51.046;6.772;2022-08-19T14:40:06;28.00;63.20
5508;DHT22;2776;51.046;6.772;2022-08-19T14:42:33;28.00;60.70
5508;DHT22;2776;51.046;6.772;2022-08-19T14:45:00;28.00;58.80
5508;DHT22;2776;51.046;6.772;2022-08-19T14:47:27;28.10;59.80
5508;DHT22;2776;51.046;6.772;2022-08-19T14:49:55;28.10;57.40
5508;DHT22;2776;51.046;6.772;2022-08-19T14:52:22;28.10;60.00
5508;DHT22;2776;51.046;6.772;2022-08-19T14:54:49;28.10;60.20
5508;DHT22;2776;51.046;6.772;2022-08-19T14:57:15;28.20;62.30
5508;DHT22;2776;51.046;6.772;2022-08-19T14:59:42;28.20;59.10
5508;DHT22;2776;51.046;6.772;2022-08-19T15:02:09;28.20;58.90
5508;DHT22;2776;51.046;6.772;2022-08-19T15:04:36;28.20;58.70
5508;DHT22;2776;51.046;6.772;2022-08-19T15:07:05;28.20;59.10
5508;DHT22;2776;51.046;6.772;2022-08-19T15:09:32;28.10;57.30
5508;DHT22;2776;51.046;6.772;2022-08-19T15:12:00;28.00;57.90
5508;DHT22;2776;51.046;6.772;2022-08-19T15:14:27;27.90;59.60
5508;DHT22;2776;51.046;6.772;2022-08-19T15:16:59;27.80;59.90
5508;DHT22;2776;51.046;6.772;2022-08-19T15:19:25;27.80;61.50
5508;DHT22;2776;51.046;6.772;2022-08-19T15:21:53;27.80;62.70
5508;DHT22;2776;51.046;6.772;2022-08-19T15:24:22;27.70;62.20
5508;DHT22;2776;51.046;6.772;2022-08-19T15:26:50;27.70;64.10
5508;DHT22;2776;51.046;6.772;2022-08-19T15:29:17;27.60;68.00
5508;DHT22;2776;51.046;6.772;2022-08-19T15:31:44;27.60;68.30
5508;DHT22;2776;51.046;6.772;2022-08-19T15:34:11;27.70;68.20
5508;DHT22;2776;51.046;6.772;2022-08-19T15:36:38;27.80;73.10
5508;DHT22;2776;51.046;6.772;2022-08-19T15:39:05;27.90;72.40
5508;DHT22;2776;51.046;6.772;2022-08-19T15:41:36;27.90;72.70
5508;DHT22;2776;51.046;6.772;2022-08-19T15:44:06;27.80;74.50
5508;DHT22;2776;51.046;6.772;2022-08-19T15:46:36;27.70;73.10
5508;DHT22;2776;51.046;6.772;2022-08-19T15:49:03;27.80;74.00
5508;DHT22;2776;51.046;6.772;2022-08-19T15:51:32;27.80;70.50
5508;DHT22;2776;51.046;6.772;2022-08-19T15:54:00;27.70;68.60
5508;DHT22;2776;51.046;6.772;2022-08-19T15:56:27;27.70;72.40
5508;DHT22;2776;51.046;6.772;2022-08-19T15:59:18;27.60;76.30
5508;DHT22;2776;51.046;6.772;2022-08-19T16:02:03;27.60;78.10
5508;DHT22;2776;51.046;6.772;2022-08-19T16:04:47;27.70;80.40
5508;DHT22;2776;51.046;6.772;2022-08-19T16:07:31;27.70;80.70
5508;DHT22;2776;51.046;6.772;2022-08-19T16:09:58;27.80;80.30
5508;DHT22;2776;51.046;6.772;2022-08-19T16:12:24;27.70;80.30
5508;DHT22;2776;51.046;6.772;2022-08-19T16:14:55;27.80;80.80